Time;durP1;ratioP1;P1;durP2;ratioP2;P2;SDS_P1;SDS_P2;PMS_P1;PMS_P2;Temp;Humidity;BMP_temperature;BMP_pressure;BME280_temperature;BME280_humidity;BME280_pressure;Samples;Min_cycle;Max_cycle;Signal;HPM_P1;HPM_P2
2024/04/16 00:00:26;;;;;;;7.27;1.77;;;7.00;70.90;;;;;;5486591;26;20556;-83
2024/04/16 00:02:51;;;;;;;4.17;1.53;;;7.00;69.60;;;;;;5486916;26;20263;-82
2024/04/16 00:05:17;;;;;;;4.57;1.53;;;6.90;70.70;;;;;;5488012;26;20220;-83
2024/04/16 00:07:43;;;;;;;3.60;1.30;;;7.00;69.60;;;;;;5488472;26;20212;-82
2024/04/16 00:10:08;;;;;;;5.30;1.60;;;6.90;70.10;;;;;;5487041;26;20371;-82
2024/04/16 00:12:34;;;;;;;4.00;1.90;;;6.90;73.70;;;;;;5485271;26;20275;-82
2024/04/16 00:15:00;;;;;;;7.67;2.00;;;7.00;71.80;;;;;;5486213;26;20637;-81
2024/04/16 00:17:27;;;;;;;5.40;2.13;;;7.10;71.60;;;;;;5486370;26;20235;-82
2024/04/16 00:19:55;;;;;;;7.30;1.87;;;7.10;74.30;;;;;;5486016;26;20281;-82
2024/04/16 00:22:20;;;;;;;4.70;1.73;;;7.20;77.70;;;;;;5487210;26;20320;-82
2024/04/16 00:24:46;;;;;;;5.13;2.00;;;7.20;77.40;;;;;;5486025;26;20617;-82
2024/04/16 00:27:12;;;;;;;5.83;2.30;;;7.20;82.00;;;;;;5486457;26;20251;-82
2024/04/16 00:29:37;;;;;;;6.50;2.00;;;7.20;86.50;;;;;;5484473;26;20224;-83
2024/04/16 00:32:03;;;;;;;6.60;2.13;;;7.20;88.80;;;;;;5486223;26;20224;-83
2024/04/16 00:34:29;;;;;;;7.17;1.80;;;7.20;90.20;;;;;;5487397;26;20235;-83
2024/04/16 00:36:55;;;;;;;5.53;1.70;;;7.20;89.00;;;;;;5485758;26;20562;-82
2024/04/16 00:39:20;;;;;;;9.67;1.90;;;7.20;91.50;;;;;;5483967;26;20758;-85
2024/04/16 00:41:49;;;;;;;6.70;1.60;;;7.20;93.00;;;;;;5485944;26;20258;-82
2024/04/16 00:44:15;;;;;;;8.77;2.20;;;7.30;91.50;;;;;;5485753;26;20262;-82
2024/04/16 00:46:40;;;;;;;6.67;2.07;;;7.40;90.90;;;;;;5484823;26;20337;-83
2024/04/16 00:49:08;;;;;;;7.93;1.93;;;7.50;84.50;;;;;;5487514;26;20661;-83
2024/04/16 00:51:34;;;;;;;5.57;1.60;;;7.50;82.60;;;;;;5487932;26;20720;-83
2024/04/16 00:54:01;;;;;;;5.40;2.20;;;7.60;84.60;;;;;;5487555;26;20817;-83
2024/04/16 00:56:27;;;;;;;5.63;1.90;;;7.50;84.20;;;;;;5489435;26;20341;-82
2024/04/16 00:58:53;;;;;;;5.13;1.70;;;7.50;86.80;;;;;;5490979;26;20224;-83
2024/04/16 01:01:19;;;;;;;5.60;2.00;;;7.50;83.80;;;;;;5490600;26;20216;-83
2024/04/16 01:03:44;;;;;;;6.77;2.47;;;7.50;84.00;;;;;;5489219;26;20666;-83
2024/04/16 01:06:11;;;;;;;7.17;1.80;;;7.60;77.70;;;;;;5491264;26;20275;-82
2024/04/16 01:08:36;;;;;;;7.73;1.93;;;7.60;76.80;;;;;;5490790;26;20316;-84
2024/04/16 01:11:02;;;;;;;5.73;1.80;;;7.80;69.40;;;;;;5490542;26;20228;-83
2024/04/16 01:13:28;;;;;;;7.27;1.93;;;7.80;66.50;;;;;;5490267;26;20224;-82
2024/04/16 01:15:54;;;;;;;7.50;2.00;;;7.90;67.00;;;;;;5488340;26;20316;-82
2024/04/16 01:18:19;;;;;;;9.37;2.07;;;7.80;68.60;;;;;;5489348;26;20275;-83
2024/04/16 01:20:45;;;;;;;7.27;2.17;;;8.00;63.90;;;;;;5488974;26;20791;-83
2024/04/16 01:23:10;;;;;;;5.87;1.60;;;7.90;63.90;;;;;;5488772;26;20220;-82
2024/04/16 01:25:36;;;;;;;4.20;1.70;;;8.00;64.80;;;;;;5491011;26;20216;-82
2024/04/16 01:28:02;;;;;;;8.90;2.03;;;7.80;68.40;;;;;;5490951;26;20697;-83
2024/04/16 01:30:28;;;;;;;5.47;2.07;;;8.00;63.80;;;;;;5489201;26;20684;-84
2024/04/16 01:32:54;;;;;;;8.83;2.17;;;8.10;61.60;;;;;;5487132;26;20220;-83
2024/04/16 01:35:20;;;;;;;8.20;2.30;;;8.20;58.60;;;;;;5490232;26;20212;-82
2024/04/16 01:37:45;;;;;;;5.03;1.97;;;8.10;57.50;;;;;;5488367;26;20261;-82
2024/04/16 01:40:12;;;;;;;7.07;1.93;;;8.20;60.90;;;;;;5487839;26;20250;-87
2024/04/16 01:42:38;;;;;;;5.53;1.77;;;8.20;60.80;;;;;;5489169;26;20280;-83
2024/04/16 01:45:04;;;;;;;7.37;2.00;;;8.20;59.20;;;;;;5489831;26;20217;-83
2024/04/16 01:47:29;;;;;;;5.83;1.70;;;8.20;58.10;;;;;;5489979;26;20266;-82
2024/04/16 01:49:55;;;;;;;5.70;1.73;;;8.30;56.40;;;;;;5489910;26;20212;-83
2024/04/16 01:52:21;;;;;;;6.67;1.83;;;8.30;54.50;;;;;;5488990;26;20209;-82
2024/04/16 01:54:46;;;;;;;7.60;2.10;;;8.30;54.80;;;;;;5488558;26;20707;-83
2024/04/16 01:57:12;;;;;;;9.40;2.27;;;8.30;53.50;;;;;;5488572;26;20225;-83
2024/04/16 01:59:38;;;;;;;7.67;1.90;;;8.30;53.40;;;;;;5486811;26;20228;-82
2024/04/16 02:02:03;;;;;;;7.23;1.70;;;8.30;55.00;;;;;;5487498;26;20217;-81
2024/04/16 02:04:29;;;;;;;7.53;1.87;;;8.30;56.40;;;;;;5492187;26;20216;-81
2024/04/16 02:06:55;;;;;;;9.30;1.93;;;8.30;59.40;;;;;;5489520;26;20232;-82
2024/04/16 02:09:21;;;;;;;6.87;1.83;;;8.30;57.80;;;;;;5490233;26;20669;-83
2024/04/16 02:11:46;;;;;;;6.70;2.13;;;8.40;60.00;;;;;;5490499;26;20588;-83
2024/04/16 02:14:12;;;;;;;6.00;1.63;;;8.20;64.60;;;;;;5488245;26;20712;-82
2024/04/16 02:16:38;;;;;;;7.80;1.87;;;8.30;68.40;;;;;;5488008;26;20771;-83
2024/04/16 02:19:03;;;;;;;7.23;2.00;;;8.20;73.20;;;;;;5487940;26;20212;-86
2024/04/16 02:21:29;;;;;;;9.20;1.87;;;8.20;76.50;;;;;;5489702;26;20681;-83
2024/04/16 02:23:55;;;;;;;7.87;2.23;;;8.20;79.40;;;;;;5489742;26;20788;-83
2024/04/16 02:26:20;;;;;;;12.03;2.20;;;8.20;87.40;;;;;;5488253;26;20721;-83
2024/04/16 02:28:46;;;;;;;7.37;1.70;;;8.10;89.00;;;;;;5489962;26;20212;-81
2024/04/16 02:31:12;;;;;;;7.17;1.60;;;8.00;94.80;;;;;;5487596;26;20308;-82
2024/04/16 02:33:38;;;;;;;4.00;1.60;;;8.00;99.00;;;;;;5487625;26;20304;-82
2024/04/16 02:36:04;;;;;;;8.87;2.13;;;7.80;99.90;;;;;;5487410;26;20277;-80
2024/04/16 02:38:29;;;;;;;10.73;2.50;;;7.80;99.90;;;;;;5489621;26;20220;-83
2024/04/16 02:40:56;;;;;;;7.37;2.20;;;7.90;99.90;;;;;;5484711;26;20228;-82
2024/04/16 02:43:21;;;;;;;11.60;2.03;;;7.80;99.90;;;;;;5489163;26;20220;-83
2024/04/16 02:45:47;;;;;;;8.77;2.23;;;7.80;99.90;;;;;;5486176;26;20316;-82
2024/04/16 02:48:13;;;;;;;4.87;1.73;;;7.90;99.90;;;;;;5488037;26;20220;-82
2024/04/16 02:50:39;;;;;;;3.57;1.50;;;7.80;99.90;;;;;;5489240;26;20259;-82
2024/04/16 02:53:05;;;;;;;4.43;1.83;;;7.60;99.90;;;;;;5487919;26;20220;-82
2024/04/16 02:55:31;;;;;;;4.60;1.97;;;7.40;99.90;;;;;;5489050;26;20735;-83
2024/04/16 02:57:56;;;;;;;5.17;2.23;;;7.30;99.90;;;;;;5489604;26;20706;-83
2024/04/16 03:00:22;;;;;;;4.90;1.63;;;7.30;99.90;;;;;;5487696;26;20703;-81
2024/04/16 03:02:48;;;;;;;5.13;2.17;;;7.30;99.90;;;;;;5487873;26;20228;-82
2024/04/16 03:05:13;;;;;;;5.47;1.90;;;7.20;99.90;;;;;;5488534;26;20355;-83
2024/04/16 03:07:39;;;;;;;7.37;2.30;;;7.20;99.90;;;;;;5487521;26;20295;-82
2024/04/16 03:10:06;;;;;;;6.23;2.30;;;7.20;99.90;;;;;;5487447;26;20224;-82
2024/04/16 03:12:32;;;;;;;4.87;2.20;;;7.20;99.90;;;;;;5485684;26;20244;-82
2024/04/16 03:14:57;;;;;;;6.73;2.00;;;7.30;99.90;;;;;;5488715;26;20258;-81
2024/04/16 03:17:23;;;;;;;7.57;2.40;;;7.30;99.90;;;;;;5485444;26;20561;-82
2024/04/16 03:19:49;;;;;;;6.83;1.90;;;7.30;99.90;;;;;;5488478;26;20255;-81
2024/04/16 03:22:14;;;;;;;5.43;2.00;;;7.40;99.90;;;;;;5488404;26;20267;-83
2024/04/16 03:24:40;;;;;;;8.30;1.80;;;7.40;99.90;;;;;;5488407;26;20236;-81
2024/04/16 03:27:06;;;;;;;6.53;2.40;;;7.50;99.90;;;;;;5487901;26;20371;-82
2024/04/16 03:29:31;;;;;;;5.80;2.63;;;7.60;99.90;;;;;;5488880;26;20224;-83
2024/04/16 03:31:57;;;;;;;8.57;2.00;;;7.50;99.90;;;;;;5487309;26;20259;-83
2024/04/16 03:34:23;;;;;;;6.00;2.07;;;7.50;99.90;;;;;;5486753;26;20216;-82
2024/04/16 03:36:49;;;;;;;5.50;2.20;;;7.60;99.90;;;;;;5488682;26;20624;-83
2024/04/16 03:39:15;;;;;;;4.73;1.83;;;7.60;99.90;;;;;;5487116;26;20239;-84
2024/04/16 03:41:40;;;;;;;5.40;1.83;;;7.50;99.90;;;;;;5489063;26;20224;-82
2024/04/16 03:44:06;;;;;;;4.47;1.70;;;7.50;99.90;;;;;;5486964;26;20220;-83
2024/04/16 03:46:32;;;;;;;6.13;2.07;;;7.60;99.90;;;;;;5488475;26;20221;-82
2024/04/16 03:48:57;;;;;;;7.50;2.10;;;7.60;99.90;;;;;;5488605;26;20732;-82
2024/04/16 03:51:23;;;;;;;5.77;2.07;;;7.60;99.90;;;;;;5486994;26;20262;-82
2024/04/16 03:53:49;;;;;;;6.47;2.40;;;7.60;99.90;;;;;;5486741;26;20220;-82
2024/04/16 03:56:14;;;;;;;6.53;2.40;;;7.70;99.90;;;;;;5485405;26;20216;-83
2024/04/16 03:58:54;;;;;;;8.23;2.13;;;7.70;99.90;;;;;;5487117;26;20254;-84
2024/04/16 04:01:20;;;;;;;6.10;2.30;;;7.80;99.90;;;;;;5486117;26;20287;-83
2024/04/16 04:03:45;;;;;;;9.50;2.67;;;7.70;99.90;;;;;;5486069;26;20220;-84
2024/04/16 04:06:11;;;;;;;7.10;2.20;;;7.80;99.90;;;;;;5488197;26;20260;-83
2024/04/16 04:08:37;;;;;;;8.67;2.30;;;7.80;99.90;;;;;;5488366;26;20212;-84
2024/04/16 04:11:04;;;;;;;5.93;2.50;;;7.80;99.90;;;;;;5488643;26;20212;-83
2024/04/16 04:13:30;;;;;;;8.70;2.40;;;7.80;99.90;;;;;;5486734;26;20268;-83
2024/04/16 04:15:56;;;;;;;6.90;2.90;;;7.90;99.90;;;;;;5487901;26;20297;-83
2024/04/16 04:18:22;;;;;;;6.03;2.17;;;8.00;99.90;;;;;;5486233;26;20728;-82
2024/04/16 04:20:48;;;;;;;7.90;2.77;;;7.90;99.90;;;;;;5487514;26;20212;-84
2024/04/16 04:23:14;;;;;;;6.43;2.53;;;7.90;99.90;;;;;;5488140;26;20260;-83
2024/04/16 04:25:40;;;;;;;4.43;2.37;;;8.00;99.90;;;;;;5485887;26;20220;-83
2024/04/16 04:28:06;;;;;;;5.90;2.43;;;8.00;99.90;;;;;;5486009;26;20278;-82
2024/04/16 04:30:32;;;;;;;7.80;2.53;;;8.10;99.90;;;;;;5489084;26;20224;-82
2024/04/16 04:32:58;;;;;;;8.33;2.77;;;8.10;99.90;;;;;;5488858;26;20247;-83
2024/04/16 04:35:24;;;;;;;6.73;2.63;;;8.00;99.90;;;;;;5491291;26;20693;-83
2024/04/16 04:37:49;;;;;;;4.87;1.87;;;8.10;99.90;;;;;;5489346;26;20246;-84
2024/04/16 04:40:15;;;;;;;7.63;2.20;;;8.10;99.90;;;;;;5490677;26;20801;-81
2024/04/16 04:42:41;;;;;;;7.60;2.50;;;8.10;99.90;;;;;;5491201;26;20696;-83
2024/04/16 04:45:07;;;;;;;5.97;2.17;;;8.10;99.90;;;;;;5489043;26;20563;-84
2024/04/16 04:47:32;;;;;;;6.60;2.03;;;8.00;99.90;;;;;;5490823;26;20335;-83
2024/04/16 04:49:59;;;;;;;7.53;2.33;;;8.00;99.90;;;;;;5490955;26;20689;-85
2024/04/16 04:52:25;;;;;;;6.93;2.57;;;8.00;99.90;;;;;;5490886;26;20216;-84
2024/04/16 04:54:50;;;;;;;8.13;1.97;;;8.00;99.90;;;;;;5490561;26;20259;-84
2024/04/16 04:57:16;;;;;;;11.80;2.97;;;8.00;99.90;;;;;;5491274;26;20262;-83
2024/04/16 04:59:42;;;;;;;7.90;2.77;;;8.00;99.90;;;;;;5490985;26;20316;-84
2024/04/16 05:02:09;;;;;;;4.67;2.33;;;7.90;99.90;;;;;;5490853;26;20689;-83
2024/04/16 05:04:35;;;;;;;8.37;3.10;;;8.00;99.90;;;;;;5489082;26;20242;-82
2024/04/16 05:07:01;;;;;;;4.43;1.87;;;8.00;99.90;;;;;;5490946;26;20716;-83
2024/04/16 05:09:27;;;;;;;6.97;2.37;;;7.90;99.90;;;;;;5490950;26;20212;-86
2024/04/16 05:11:52;;;;;;;7.73;2.97;;;7.90;99.90;;;;;;5490902;26;20212;-83
2024/04/16 05:14:19;;;;;;;5.70;2.50;;;8.00;99.90;;;;;;5489193;26;20352;-83
2024/04/16 05:16:45;;;;;;;6.57;2.87;;;7.90;99.90;;;;;;5488600;26;20328;-83
2024/04/16 05:19:11;;;;;;;6.30;2.93;;;7.90;99.90;;;;;;5488881;26;20246;-83
2024/04/16 05:21:36;;;;;;;6.80;2.97;;;7.90;99.90;;;;;;5490006;26;20697;-83
2024/04/16 05:24:02;;;;;;;9.10;3.60;;;7.90;99.90;;;;;;5490711;26;20216;-84
2024/04/16 05:26:28;;;;;;;6.23;3.27;;;7.90;99.90;;;;;;5489169;26;20216;-82
2024/04/16 05:28:54;;;;;;;6.60;3.30;;;7.90;99.90;;;;;;5486875;26;20220;-82
2024/04/16 05:31:19;;;;;;;7.63;3.33;;;7.90;99.90;;;;;;5488541;26;20250;-83
2024/04/16 05:33:45;;;;;;;8.67;3.90;;;7.90;99.90;;;;;;5488861;26;20224;-81
2024/04/16 05:36:11;;;;;;;4.87;2.97;;;7.90;99.90;;;;;;5488873;26;20312;-83
2024/04/16 05:38:37;;;;;;;5.73;2.50;;;7.80;99.90;;;;;;5490448;26;20232;-82
2024/04/16 05:41:03;;;;;;;5.07;2.30;;;7.90;99.90;;;;;;5486459;26;20307;-82
2024/04/16 05:43:29;;;;;;;6.70;2.73;;;7.80;99.90;;;;;;5487762;26;20749;-82
2024/04/16 05:45:55;;;;;;;8.23;2.87;;;7.90;99.90;;;;;;5487439;26;20308;-83
2024/04/16 05:48:21;;;;;;;6.03;2.60;;;7.90;99.90;;;;;;5489034;26;20554;-81
2024/04/16 05:50:47;;;;;;;7.73;2.93;;;7.90;99.90;;;;;;5487371;26;20224;-82
2024/04/16 05:53:12;;;;;;;8.87;2.53;;;7.90;99.90;;;;;;5490809;26;20259;-84
2024/04/16 05:55:38;;;;;;;5.93;2.70;;;7.90;99.90;;;;;;5491820;26;20776;-85
2024/04/16 05:58:04;;;;;;;6.13;2.57;;;7.90;99.90;;;;;;5489092;26;20220;-84
2024/04/16 06:00:29;;;;;;;4.27;2.07;;;8.00;99.90;;;;;;5488619;26;20247;-84
2024/04/16 06:02:55;;;;;;;7.47;2.47;;;8.00;99.90;;;;;;5490385;26;20685;-85
2024/04/16 06:05:21;;;;;;;3.67;2.10;;;8.00;99.90;;;;;;5489813;26;20228;-87
2024/04/16 06:07:47;;;;;;;6.43;2.70;;;8.10;99.90;;;;;;5487542;26;20254;-83
2024/04/16 06:10:12;;;;;;;5.10;2.13;;;8.00;99.90;;;;;;5489112;26;20685;-85
2024/04/16 06:12:38;;;;;;;8.93;2.80;;;8.10;99.90;;;;;;5484751;26;20665;-84
2024/04/16 06:15:04;;;;;;;6.27;2.13;;;8.10;99.90;;;;;;5487817;26;20224;-86
2024/04/16 06:17:30;;;;;;;8.73;2.40;;;8.10;99.90;;;;;;5484746;26;20660;-85
2024/04/16 06:19:55;;;;;;;9.13;3.07;;;8.10;99.90;;;;;;5473683;26;20259;-84
2024/04/16 06:22:21;;;;;;;7.87;2.97;;;8.20;99.90;;;;;;5483493;26;20284;-84
2024/04/16 06:24:47;;;;;;;8.47;2.70;;;8.20;99.90;;;;;;5489046;26;20322;-83
2024/04/16 06:27:13;;;;;;;4.30;1.93;;;8.20;99.90;;;;;;5487667;26;20224;-84
2024/04/16 06:29:38;;;;;;;4.43;2.57;;;8.20;99.90;;;;;;5485540;26;20220;-83
2024/04/16 06:32:05;;;;;;;6.27;2.60;;;8.20;99.90;;;;;;5486321;26;20281;-83
2024/04/16 06:34:31;;;;;;;7.33;2.17;;;8.20;99.90;;;;;;5486515;26;20259;-84
2024/04/16 06:36:58;;;;;;;9.10;2.40;;;8.20;99.90;;;;;;5487111;26;20285;-83
2024/04/16 06:39:23;;;;;;;8.70;2.33;;;8.20;99.90;;;;;;5485788;26;20262;-85
2024/04/16 06:41:49;;;;;;;5.93;2.60;;;8.20;99.90;;;;;;5488826;26;20212;-84
2024/04/16 06:44:15;;;;;;;5.57;2.27;;;8.30;99.90;;;;;;5488749;26;20264;-84
2024/04/16 06:46:41;;;;;;;5.50;2.10;;;8.40;99.90;;;;;;5486971;26;20308;-82
2024/04/16 06:49:07;;;;;;;6.60;2.27;;;8.40;99.90;;;;;;5484555;26;20232;-85
2024/04/16 06:51:32;;;;;;;4.87;2.30;;;8.50;99.90;;;;;;5487987;26;20651;-85
2024/04/16 06:53:58;;;;;;;5.80;1.80;;;8.50;99.90;;;;;;5487177;26;20228;-85
2024/04/16 06:56:24;;;;;;;7.00;1.80;;;8.50;99.90;;;;;;5486998;26;20252;-84
2024/04/16 06:58:49;;;;;;;4.80;2.10;;;8.60;99.90;;;;;;5486347;26;20216;-84
2024/04/16 07:01:15;;;;;;;7.50;2.00;;;8.60;99.90;;;;;;5487075;26;20220;-84
2024/04/16 07:03:41;;;;;;;8.57;2.77;;;8.70;99.90;;;;;;5487295;26;20685;-84
2024/04/16 07:06:06;;;;;;;7.43;2.23;;;8.80;99.90;;;;;;5486137;26;20640;-84
2024/04/16 07:08:32;;;;;;;5.00;2.30;;;8.90;99.90;;;;;;5487855;26;20757;-86
2024/04/16 07:10:58;;;;;;;6.03;2.00;;;8.90;99.90;;;;;;5489268;26;20282;-84
2024/04/16 07:13:24;;;;;;;6.70;2.00;;;8.90;99.90;;;;;;5488117;26;20735;-85
2024/04/16 07:15:51;;;;;;;6.63;2.10;;;8.90;99.90;;;;;;5487867;26;20347;-86
2024/04/16 07:18:16;;;;;;;8.60;2.30;;;9.00;99.90;;;;;;5487436;26;20292;-85
2024/04/16 07:20:49;;;;;;;5.60;2.30;;;9.00;99.90;;;;;;5487317;26;20760;-86
2024/04/16 07:23:16;;;;;;;5.30;2.30;;;9.00;99.90;;;;;;5489058;26;20255;-85
2024/04/16 07:25:45;;;;;;;6.67;2.30;;;9.10;99.90;;;;;;5486072;26;20224;-86
2024/04/16 07:28:13;;;;;;;5.00;2.07;;;9.20;99.90;;;;;;5489056;26;20212;-85
2024/04/16 07:30:40;;;;;;;8.13;2.50;;;9.20;99.90;;;;;;5489561;26;20801;-85
2024/04/16 07:33:07;;;;;;;5.67;1.57;;;9.30;99.90;;;;;;5474603;26;20244;-87
2024/04/16 07:35:33;;;;;;;7.57;2.00;;;9.40;99.20;;;;;;5452286;26;20281;-88
2024/04/16 07:38:00;;;;;;;7.57;2.30;;;9.40;99.90;;;;;;5452018;26;20310;-86
2024/04/16 07:40:25;;;;;;;6.03;1.80;;;9.40;98.10;;;;;;5450519;26;20213;-88
2024/04/16 07:42:51;;;;;;;6.13;1.93;;;9.50;97.00;;;;;;5451280;26;20213;-85
2024/04/16 07:45:17;;;;;;;7.43;2.33;;;9.60;97.80;;;;;;5452356;26;20210;-85
2024/04/16 07:47:43;;;;;;;5.40;1.70;;;9.60;95.90;;;;;;5452402;26;20268;-86
2024/04/16 07:50:08;;;;;;;6.93;2.30;;;9.60;94.40;;;;;;5449924;26;20299;-85
2024/04/16 07:52:34;;;;;;;6.53;1.97;;;9.60;95.90;;;;;;5448761;26;20510;-84
2024/04/16 07:55:00;;;;;;;4.40;1.63;;;9.60;93.10;;;;;;5451391;26;20336;-85
2024/04/16 07:57:26;;;;;;;9.33;1.93;;;9.70;95.00;;;;;;5450798;26;20252;-84
2024/04/16 07:59:52;;;;;;;5.80;2.13;;;9.70;93.60;;;;;;5448721;26;20666;-85
2024/04/16 08:02:17;;;;;;;5.93;2.30;;;9.60;92.60;;;;;;5450234;26;20309;-84
2024/04/16 08:04:43;;;;;;;6.17;1.97;;;9.70;94.80;;;;;;5451098;26;20213;-85
2024/04/16 08:07:09;;;;;;;6.47;1.97;;;9.70;95.00;;;;;;5452171;26;20588;-85
2024/04/16 08:09:34;;;;;;;3.97;1.40;;;9.70;92.40;;;;;;5448490;26;20221;-85
2024/04/16 08:12:00;;;;;;;5.80;1.50;;;9.70;90.20;;;;;;5450236;26;20548;-86
2024/04/16 08:14:25;;;;;;;6.63;1.80;;;9.70;87.60;;;;;;5452478;26;20539;-85
2024/04/16 08:16:51;;;;;;;5.90;1.60;;;9.80;82.60;;;;;;5451485;26;20229;-85
2024/04/16 08:19:18;;;;;;;7.33;2.03;;;9.80;83.80;;;;;;5448731;26;20277;-85
2024/04/16 08:21:44;;;;;;;7.63;2.10;;;9.80;88.00;;;;;;5449782;26;20309;-88
2024/04/16 08:24:10;;;;;;;2.97;1.43;;;9.90;88.70;;;;;;5452418;26;20209;-86
2024/04/16 08:26:35;;;;;;;5.43;1.80;;;9.90;89.00;;;;;;5471412;26;20291;-85
2024/04/16 08:29:01;;;;;;;5.33;1.80;;;9.70;93.20;;;;;;5449725;26;20368;-86
2024/04/16 08:31:27;;;;;;;6.77;1.73;;;9.60;98.30;;;;;;5450313;26;20638;-86
2024/04/16 08:33:52;;;;;;;5.10;1.93;;;9.50;99.90;;;;;;5450556;26;20232;-85
2024/04/16 08:36:18;;;;;;;4.40;1.80;;;9.50;99.90;;;;;;5450463;26;20557;-87
2024/04/16 08:38:45;;;;;;;6.13;1.90;;;9.50;99.90;;;;;;5451528;26;20252;-85
2024/04/16 08:41:11;;;;;;;7.77;1.83;;;9.60;99.90;;;;;;5451155;26;20744;-84
2024/04/16 08:43:39;;;;;;;8.40;1.90;;;9.70;99.90;;;;;;5449806;26;20225;-83
2024/04/16 08:46:06;;;;;;;7.43;2.03;;;9.80;99.90;;;;;;5449821;26;20210;-86
2024/04/16 08:48:37;;;;;;;5.27;1.87;;;9.80;97.00;;;;;;5449463;26;20217;-86
2024/04/16 08:51:03;;;;;;;8.97;2.27;;;9.70;94.80;;;;;;5451511;26;20693;-85
2024/04/16 08:53:32;;;;;;;6.13;1.60;;;9.80;94.50;;;;;;5449380;26;20259;-84
2024/04/16 08:55:58;;;;;;;5.97;1.87;;;9.90;91.60;;;;;;5448707;26;20547;-85
2024/04/16 08:58:24;;;;;;;4.00;1.57;;;9.90;82.70;;;;;;5451722;26;20285;-85
2024/04/16 09:00:50;;;;;;;6.23;1.80;;;9.90;88.10;;;;;;5449422;26;20221;-86
2024/04/16 09:03:16;;;;;;;4.27;1.70;;;10.00;87.70;;;;;;5447395;26;20256;-84
2024/04/16 09:05:43;;;;;;;3.63;1.57;;;10.00;81.10;;;;;;5448792;26;20402;-84
2024/04/16 09:08:09;;;;;;;4.20;1.50;;;10.10;84.60;;;;;;5450407;26;20214;-84
2024/04/16 09:10:34;;;;;;;3.80;1.57;;;10.00;86.00;;;;;;5451141;26;20724;-86
2024/04/16 09:13:13;;;;;;;6.10;1.53;;;9.80;88.70;;;;;;5447626;26;20601;-86
2024/04/16 09:15:40;;;;;;;5.53;1.70;;;9.80;89.60;;;;;;5452363;26;20243;-86
2024/04/16 09:18:07;;;;;;;5.17;1.80;;;9.90;90.40;;;;;;5453511;26;20237;-86
2024/04/16 09:20:33;;;;;;;4.00;1.50;;;9.80;82.90;;;;;;5453011;26;20670;-84
2024/04/16 09:22:59;;;;;;;6.80;2.00;;;9.80;90.90;;;;;;5452011;26;20608;-85
2024/04/16 09:25:25;;;;;;;3.77;1.23;;;9.80;91.70;;;;;;5453864;26;20260;-84
2024/04/16 09:27:53;;;;;;;3.40;1.50;;;9.80;91.60;;;;;;5455153;26;20226;-85
2024/04/16 09:30:19;;;;;;;6.67;1.93;;;9.70;98.70;;;;;;5451253;26;20225;-85
2024/04/16 09:32:46;;;;;;;5.80;1.40;;;9.60;98.40;;;;;;5453968;26;20213;-85
2024/04/16 09:35:19;;;;;;;5.67;1.93;;;9.50;99.90;;;;;;5454591;26;20222;-85
2024/04/16 09:37:44;;;;;;;6.03;1.93;;;9.60;99.90;;;;;;5454195;26;20356;-84
2024/04/16 09:40:12;;;;;;;4.00;1.50;;;9.60;99.90;;;;;;5451474;26;20779;-87
2024/04/16 09:42:40;;;;;;;6.47;1.33;;;9.60;99.90;;;;;;5452755;26;20221;-84
2024/04/16 09:45:06;;;;;;;3.63;1.33;;;9.50;96.20;;;;;;5453023;26;20605;-84
2024/04/16 09:47:35;;;;;;;2.30;1.00;;;9.30;95.00;;;;;;5452731;26;20263;-84
2024/04/16 09:50:01;;;;;;;3.17;1.40;;;9.20;99.90;;;;;;5452335;26;20247;-86
2024/04/16 09:52:29;;;;;;;5.97;1.33;;;9.30;99.90;;;;;;5451825;26;20538;-84
2024/04/16 09:54:58;;;;;;;4.10;1.30;;;9.40;99.90;;;;;;5452443;26;20685;-85
2024/04/16 09:57:27;;;;;;;5.07;1.60;;;9.40;99.90;;;;;;5450693;26;20248;-87
2024/04/16 09:59:54;;;;;;;3.63;1.13;;;9.40;99.90;;;;;;5454834;26;20267;-84
2024/04/16 10:02:21;;;;;;;4.33;1.20;;;9.50;99.90;;;;;;5454431;26;20336;-85
2024/04/16 10:04:49;;;;;;;3.70;1.60;;;9.60;99.90;;;;;;5452624;26;20682;-88
2024/04/16 10:07:15;;;;;;;4.63;1.40;;;9.70;99.90;;;;;;5450325;26;20256;-85
2024/04/16 10:09:41;;;;;;;3.97;1.67;;;9.60;99.90;;;;;;5452050;26;20260;-85
2024/04/16 10:12:08;;;;;;;5.30;1.43;;;9.60;99.90;;;;;;5451880;26;20221;-84
2024/04/16 10:14:35;;;;;;;6.17;1.90;;;9.70;99.90;;;;;;5452260;26;20269;-84
2024/04/16 10:17:01;;;;;;;7.13;1.70;;;9.70;99.90;;;;;;5449793;26;20260;-84
2024/04/16 10:19:28;;;;;;;7.60;1.60;;;9.80;99.90;;;;;;5452713;26;20225;-85
2024/04/16 10:22:01;;;;;;;4.87;1.60;;;9.80;99.90;;;;;;5453501;26;20213;-84
2024/04/16 10:24:29;;;;;;;4.07;1.30;;;9.90;99.90;;;;;;5449261;26;20768;-85
2024/04/16 10:26:57;;;;;;;1.93;1.03;;;9.90;99.90;;;;;;5452858;26;20217;-84
2024/04/16 10:29:25;;;;;;;6.90;1.73;;;9.90;99.90;;;;;;5453138;26;20686;-83
2024/04/16 10:31:52;;;;;;;4.20;1.60;;;10.00;99.90;;;;;;5451469;26;20278;-85
2024/04/16 10:34:22;;;;;;;5.40;2.10;;;10.10;99.90;;;;;;5448744;26;20715;-85
2024/04/16 10:36:50;;;;;;;6.07;2.10;;;10.20;99.90;;;;;;5450239;26;20275;-84
2024/04/16 10:39:16;;;;;;;3.77;1.60;;;10.10;99.90;;;;;;5451098;26;20263;-84
2024/04/16 10:41:56;;;;;;;3.47;1.50;;;10.20;99.90;;;;;;5450160;26;20221;-85
2024/04/16 10:44:23;;;;;;;2.70;1.47;;;10.30;99.90;;;;;;5451034;26;20717;-84
2024/04/16 10:46:50;;;;;;;4.17;1.47;;;10.40;99.90;;;;;;5450805;26;20458;-85
2024/04/16 10:49:18;;;;;;;4.33;1.57;;;10.50;99.90;;;;;;5451476;26;20213;-86
2024/04/16 10:51:47;;;;;;;3.37;1.30;;;10.70;99.90;;;;;;5448890;26;20626;-84
2024/04/16 10:54:12;;;;;;;4.63;1.60;;;10.70;90.60;;;;;;5450004;26;20225;-85
2024/04/16 10:56:39;;;;;;;3.40;1.57;;;10.80;86.60;;;;;;5452691;26;20271;-85
2024/04/16 10:59:06;;;;;;;4.77;1.47;;;10.80;81.80;;;;;;5450745;26;20221;-86
2024/04/16 11:01:39;;;;;;;4.63;1.70;;;10.90;79.30;;;;;;5449257;26;20680;-84
2024/04/16 11:04:11;;;;;;;4.00;1.50;;;10.80;71.70;;;;;;5452654;26;20220;-86
2024/04/16 11:06:38;;;;;;;3.90;1.90;;;10.90;83.10;;;;;;5452709;26;20225;-85
2024/04/16 11:09:04;;;;;;;7.73;1.87;;;11.00;72.30;;;;;;5452628;26;20373;-86
2024/04/16 11:11:34;;;;;;;2.10;0.90;;;10.90;78.10;;;;;;5449498;26;20223;-86
2024/04/16 11:14:00;;;;;;;5.63;1.70;;;10.70;68.90;;;;;;5452733;26;20268;-84
2024/04/16 11:16:27;;;;;;;4.67;1.57;;;10.70;93.10;;;;;;5449950;26;20274;-86
2024/04/16 11:18:53;;;;;;;6.10;1.50;;;10.60;90.90;;;;;;5450488;26;20214;-85
2024/04/16 11:21:20;;;;;;;6.27;1.97;;;10.70;88.60;;;;;;5451346;26;20675;-84
2024/04/16 11:23:47;;;;;;;3.40;1.57;;;10.90;90.80;;;;;;5452221;26;20218;-85
2024/04/16 11:26:15;;;;;;;7.37;3.20;;;10.90;88.70;;;;;;5450707;26;20237;-85
2024/04/16 11:28:41;;;;;;;4.70;2.00;;;10.90;91.90;;;;;;5450254;26;20221;-84
2024/04/16 11:31:07;;;;;;;6.27;2.10;;;10.60;98.60;;;;;;5451127;26;20237;-85
2024/04/16 11:33:34;;;;;;;3.23;1.80;;;10.30;99.90;;;;;;5451191;26;20225;-84
2024/04/16 11:36:10;;;;;;;4.97;2.00;;;10.20;99.90;;;;;;5452026;26;20241;-85
2024/04/16 11:38:36;;;;;;;5.60;1.90;;;10.20;99.90;;;;;;5450904;26;20309;-85
2024/04/16 11:41:03;;;;;;;3.33;1.60;;;10.20;99.90;;;;;;5451658;26;20524;-85
2024/04/16 11:43:29;;;;;;;6.20;1.93;;;10.40;99.90;;;;;;5453526;26;20225;-87
2024/04/16 11:45:55;;;;;;;6.23;1.87;;;10.50;99.90;;;;;;5451545;26;20280;-84
2024/04/16 11:48:21;;;;;;;5.77;2.13;;;10.70;99.90;;;;;;5453542;26;20341;-84
2024/04/16 11:50:48;;;;;;;4.83;1.93;;;10.90;99.90;;;;;;5451512;26;20221;-85
2024/04/16 11:53:13;;;;;;;8.83;2.13;;;11.00;97.80;;;;;;5452021;26;20217;-85
2024/04/16 11:55:39;;;;;;;3.33;1.40;;;10.90;94.50;;;;;;5451639;26;20260;-84
2024/04/16 11:58:07;;;;;;;4.00;1.53;;;10.80;94.00;;;;;;5450841;26;20247;-83
2024/04/16 12:00:33;;;;;;;5.07;1.37;;;10.60;92.50;;;;;;5451249;26;20216;-83
2024/04/16 12:03:01;;;;;;;2.90;1.57;;;10.60;94.60;;;;;;5451771;26;20273;-84
2024/04/16 12:05:27;;;;;;;3.77;1.87;;;10.70;97.40;;;;;;5449718;26;20283;-85
2024/04/16 12:07:53;;;;;;;5.07;2.03;;;10.80;99.00;;;;;;5474624;26;20244;-86
2024/04/16 12:10:18;;;;;;;3.90;1.50;;;10.80;98.80;;;;;;5487422;26;20212;-83
2024/04/16 12:12:44;;;;;;;5.03;1.30;;;10.70;95.10;;;;;;5488117;26;20225;-85
2024/04/16 12:15:10;;;;;;;3.17;1.30;;;10.10;99.90;;;;;;5486504;26;20637;-84
2024/04/16 12:17:36;;;;;;;2.40;0.87;;;9.90;99.90;;;;;;5484576;26;20228;-84
2024/04/16 12:20:02;;;;;;;2.93;1.23;;;9.80;99.90;;;;;;5487494;26;20692;-84
2024/04/16 12:22:28;;;;;;;4.63;1.07;;;9.90;99.90;;;;;;5474086;26;20301;-84
2024/04/16 12:24:54;;;;;;;3.70;1.10;;;9.90;99.90;;;;;;5455161;26;20259;-84
2024/04/16 12:27:20;;;;;;;3.57;0.90;;;10.00;99.60;;;;;;5450150;26;20642;-85
2024/04/16 12:29:47;;;;;;;1.90;1.00;;;10.00;99.90;;;;;;5449346;26;20209;-85
2024/04/16 12:32:12;;;;;;;3.97;1.50;;;10.20;99.90;;;;;;5451466;26;20225;-85
2024/04/16 12:34:38;;;;;;;5.13;1.63;;;10.40;99.90;;;;;;5450281;26;20251;-85
2024/04/16 12:37:04;;;;;;;5.33;1.90;;;10.60;99.90;;;;;;5449616;26;20218;-85
2024/04/16 12:39:30;;;;;;;5.97;2.27;;;10.60;99.90;;;;;;5448290;26;20313;-85
2024/04/16 12:41:59;;;;;;;4.73;1.60;;;10.70;99.90;;;;;;5449281;26;20256;-86
2024/04/16 12:44:27;;;;;;;8.00;1.60;;;10.70;99.90;;;;;;5448778;26;20256;-84
2024/04/16 12:46:53;;;;;;;2.43;0.83;;;10.50;98.30;;;;;;5447668;26;20233;-86
2024/04/16 12:49:24;;;;;;;3.33;1.00;;;10.40;92.30;;;;;;5448650;26;20731;-85